Time;durP1;ratioP1;P1;durP2;ratioP2;P2;SDS_P1;SDS_P2;PMS_P1;PMS_P2;Temp;Humidity;BMP_temperature;BMP_pressure;BME280_temperature;BME280_humidity;BME280_pressure;Samples;Min_cycle;Max_cycle;Signal;HPM_P1;HPM_P2
2024/02/21 00:02:26;;;;;;;2.83;1.23;;;4.80;99.90;;;;;;5013563;28;20252;-61
2024/02/21 00:04:52;;;;;;;1.33;0.67;;;4.90;99.90;;;;;;5012873;28;20225;-63
2024/02/21 00:07:19;;;;;;;0.90;0.90;;;4.90;99.90;;;;;;5013223;28;20738;-62
2024/02/21 00:09:46;;;;;;;1.20;0.73;;;4.90;99.90;;;;;;4993786;28;20258;-61
2024/02/21 00:12:14;;;;;;;1.53;0.87;;;4.80;99.90;;;;;;4993679;28;20225;-61
2024/02/21 00:14:41;;;;;;;1.10;0.70;;;4.90;99.90;;;;;;4992915;28;20235;-62
2024/02/21 00:17:09;;;;;;;0.93;0.80;;;4.80;99.90;;;;;;4993804;28;20583;-62
2024/02/21 00:19:37;;;;;;;2.73;1.80;;;5.10;99.90;;;;;;5011981;28;20241;-62
2024/02/21 00:22:05;;;;;;;0.43;0.43;;;4.80;99.90;;;;;;5013308;28;20268;-62
2024/02/21 00:24:32;;;;;;;2.50;0.70;;;4.70;99.90;;;;;;5012281;28;20221;-62
2024/02/21 00:26:59;;;;;;;1.43;0.70;;;4.60;99.90;;;;;;5013141;28;20212;-61
2024/02/21 00:29:27;;;;;;;2.10;0.57;;;4.60;99.90;;;;;;5012591;28;20204;-61
2024/02/21 00:31:54;;;;;;;1.70;0.53;;;4.60;99.90;;;;;;5013048;28;20302;-61
2024/02/21 00:34:21;;;;;;;1.70;0.50;;;4.50;99.90;;;;;;5012315;28;20224;-63
2024/02/21 00:36:50;;;;;;;2.70;0.63;;;4.70;99.90;;;;;;5013040;28;20203;-61
2024/02/21 00:39:17;;;;;;;1.70;0.40;;;4.60;99.90;;;;;;5027974;28;20201;-61
2024/02/21 00:41:44;;;;;;;1.70;0.40;;;4.70;99.90;;;;;;5032491;28;20273;-61
2024/02/21 00:44:11;;;;;;;0.93;0.93;;;4.70;99.90;;;;;;5031639;28;20341;-61
2024/02/21 00:46:38;;;;;;;1.10;0.97;;;4.70;99.90;;;;;;5032619;28;20235;-62
2024/02/21 00:49:05;;;;;;;1.53;0.37;;;4.80;99.90;;;;;;5031745;28;20208;-63
2024/02/21 00:51:32;;;;;;;0.50;0.50;;;4.70;99.90;;;;;;5032203;28;20265;-62
2024/02/21 00:54:01;;;;;;;0.70;0.40;;;4.70;99.90;;;;;;5031492;28;20236;-62
2024/02/21 00:56:29;;;;;;;1.90;0.60;;;4.70;99.90;;;;;;5025945;28;20236;-61
2024/02/21 00:58:56;;;;;;;2.30;0.60;;;4.70;99.90;;;;;;5012520;28;20616;-61
2024/02/21 01:01:23;;;;;;;1.90;0.63;;;4.70;99.90;;;;;;5012294;28;20268;-61
2024/02/21 01:03:51;;;;;;;1.87;0.40;;;4.70;99.90;;;;;;5011068;28;20225;-61
2024/02/21 01:06:18;;;;;;;2.30;0.40;;;4.60;99.90;;;;;;5015068;28;20290;-62
2024/02/21 01:08:45;;;;;;;1.50;0.50;;;4.60;99.90;;;;;;5029923;28;20292;-61
2024/02/21 01:11:13;;;;;;;0.60;0.40;;;4.60;99.90;;;;;;5031855;28;20226;-62
2024/02/21 01:13:40;;;;;;;0.30;0.20;;;4.50;99.90;;;;;;5029346;28;20227;-61
2024/02/21 01:16:07;;;;;;;0.40;0.30;;;4.60;99.90;;;;;;5031559;28;20278;-61
2024/02/21 01:18:34;;;;;;;0.47;0.37;;;4.60;99.90;;;;;;5032147;28;20251;-61
2024/02/21 01:21:01;;;;;;;0.27;0.27;;;4.50;99.90;;;;;;5032198;28;20216;-61
2024/02/21 01:23:28;;;;;;;1.47;0.40;;;4.60;99.90;;;;;;5031179;28;20209;-61
2024/02/21 01:25:56;;;;;;;0.83;0.57;;;4.60;99.90;;;;;;5031489;28;20277;-61
2024/02/21 01:28:24;;;;;;;0.80;0.43;;;4.50;99.90;;;;;;5031810;28;20251;-61
2024/02/21 01:30:51;;;;;;;1.30;1.17;;;4.40;99.90;;;;;;5031488;28;20626;-61
2024/02/21 01:33:18;;;;;;;0.40;0.30;;;4.30;99.90;;;;;;5031429;28;20232;-61
2024/02/21 01:35:45;;;;;;;2.20;0.60;;;4.40;99.90;;;;;;5030671;28;20204;-61
2024/02/21 01:38:14;;;;;;;1.23;0.40;;;4.40;99.90;;;;;;5030713;28;20204;-62
2024/02/21 01:40:41;;;;;;;0.30;0.30;;;4.30;99.90;;;;;;5031251;28;20200;-61
2024/02/21 01:43:17;;;;;;;1.00;0.43;;;4.30;99.90;;;;;;5031291;28;20198;-61
2024/02/21 01:45:49;;;;;;;1.00;0.60;;;4.20;99.90;;;;;;5030588;28;20303;-61
2024/02/21 01:48:17;;;;;;;0.77;0.60;;;4.40;99.90;;;;;;5011857;28;20613;-61
2024/02/21 01:50:45;;;;;;;1.27;0.60;;;4.20;99.90;;;;;;5011793;28;20208;-61
2024/02/21 01:53:17;;;;;;;0.73;0.73;;;4.30;99.90;;;;;;5011312;28;20233;-61
2024/02/21 01:55:45;;;;;;;0.50;0.50;;;4.30;99.90;;;;;;5010686;28;20214;-61
2024/02/21 01:58:13;;;;;;;4.17;1.23;;;4.20;99.90;;;;;;5029315;28;20571;-62
2024/02/21 02:00:42;;;;;;;1.53;0.60;;;4.10;99.90;;;;;;5030837;28;20209;-62
2024/02/21 02:03:16;;;;;;;0.70;0.70;;;4.10;99.90;;;;;;5030953;28;20225;-62
2024/02/21 02:05:44;;;;;;;4.10;0.70;;;4.10;99.90;;;;;;5030357;28;20583;-62
2024/02/21 02:08:11;;;;;;;0.70;0.70;;;4.00;99.90;;;;;;5012811;28;20302;-62
2024/02/21 02:10:39;;;;;;;2.13;0.50;;;4.10;99.90;;;;;;5011051;28;20254;-62
2024/02/21 02:13:06;;;;;;;1.10;0.80;;;4.00;99.90;;;;;;5011162;28;20251;-62
2024/02/21 02:15:39;;;;;;;3.17;0.50;;;4.10;99.90;;;;;;5009897;28;20221;-61
2024/02/21 02:18:06;;;;;;;0.90;0.70;;;4.10;99.90;;;;;;5010932;28;20593;-62
2024/02/21 02:20:35;;;;;;;1.20;0.40;;;4.10;99.90;;;;;;5010999;28;20213;-61
2024/02/21 02:23:06;;;;;;;0.33;0.33;;;4.00;99.90;;;;;;5011199;28;20263;-61
2024/02/21 02:25:34;;;;;;;3.10;0.60;;;4.00;99.90;;;;;;5010140;28;20608;-61
2024/02/21 02:28:01;;;;;;;0.50;0.40;;;4.10;99.90;;;;;;5026788;28;20205;-61
2024/02/21 02:30:29;;;;;;;0.23;0.23;;;4.00;99.90;;;;;;5022213;28;20204;-62
2024/02/21 02:32:56;;;;;;;0.30;0.30;;;4.00;99.90;;;;;;5010958;28;20226;-62
2024/02/21 02:35:23;;;;;;;0.40;0.30;;;4.10;99.90;;;;;;5010234;28;20228;-61
2024/02/21 02:37:50;;;;;;;0.50;0.50;;;4.10;99.90;;;;;;5025040;28;20626;-61
2024/02/21 02:40:18;;;;;;;0.57;0.50;;;4.00;99.90;;;;;;5030869;28;20208;-62
2024/02/21 02:42:46;;;;;;;1.13;0.90;;;4.10;99.90;;;;;;5030589;28;20196;-62
2024/02/21 02:45:14;;;;;;;0.60;0.30;;;4.00;99.90;;;;;;5029666;28;20235;-62
2024/02/21 02:47:41;;;;;;;0.30;0.30;;;4.10;99.90;;;;;;5017029;28;20626;-61
2024/02/21 02:50:09;;;;;;;0.77;0.30;;;3.90;99.90;;;;;;5010570;28;20204;-61
2024/02/21 02:52:36;;;;;;;0.30;0.30;;;3.90;99.90;;;;;;5010610;28;20229;-61
2024/02/21 02:55:03;;;;;;;0.40;0.40;;;3.90;99.90;;;;;;5009780;28;20271;-61
2024/02/21 02:57:34;;;;;;;0.30;0.30;;;3.90;99.90;;;;;;5021371;28;20208;-61
2024/02/21 03:00:03;;;;;;;1.40;0.40;;;3.90;99.90;;;;;;5030672;28;20205;-61
2024/02/21 03:02:33;;;;;;;0.60;0.40;;;3.90;99.90;;;;;;5030530;28;20620;-61
2024/02/21 03:05:00;;;;;;;0.20;0.20;;;3.90;99.90;;;;;;5029293;28;20224;-61
2024/02/21 03:07:27;;;;;;;0.40;0.40;;;3.80;99.90;;;;;;5029566;28;20201;-61
2024/02/21 03:09:54;;;;;;;0.77;0.20;;;3.90;99.90;;;;;;5030102;28;20631;-61
2024/02/21 03:12:27;;;;;;;0.50;0.40;;;3.90;99.90;;;;;;5030078;28;20304;-61
2024/02/21 03:14:53;;;;;;;0.97;0.60;;;3.90;99.90;;;;;;5027292;28;20251;-61
2024/02/21 03:17:22;;;;;;;2.23;0.67;;;3.80;99.90;;;;;;5029592;28;20193;-61
2024/02/21 03:19:49;;;;;;;1.07;0.60;;;3.80;99.90;;;;;;5028194;28;20259;-61
2024/02/21 03:22:16;;;;;;;0.20;0.20;;;3.90;99.90;;;;;;5030297;28;20198;-62
2024/02/21 03:24:44;;;;;;;0.63;0.20;;;4.00;99.90;;;;;;5029284;28;20280;-62
2024/02/21 03:27:11;;;;;;;0.60;0.50;;;4.00;99.90;;;;;;5021982;28;20228;-62
2024/02/21 03:29:38;;;;;;;0.50;0.50;;;3.90;99.90;;;;;;5013906;28;20282;-62
2024/02/21 03:32:05;;;;;;;0.53;0.50;;;3.90;99.90;;;;;;5014077;28;20711;-62
2024/02/21 03:34:33;;;;;;;3.70;0.60;;;3.90;99.90;;;;;;5013348;28;20279;-62
2024/02/21 03:37:00;;;;;;;0.87;0.87;;;4.00;99.90;;;;;;5019849;28;20754;-62
2024/02/21 03:39:27;;;;;;;1.37;0.63;;;4.00;99.90;;;;;;5034324;28;20211;-62
2024/02/21 03:41:54;;;;;;;0.60;0.40;;;4.10;99.90;;;;;;5034078;28;20209;-62
2024/02/21 03:44:21;;;;;;;0.40;0.40;;;4.10;99.90;;;;;;5033013;28;20263;-62
2024/02/21 03:46:48;;;;;;;0.80;0.50;;;4.20;99.90;;;;;;5034432;28;20208;-62
2024/02/21 03:49:15;;;;;;;0.40;0.40;;;4.20;99.90;;;;;;5033932;28;20266;-62
2024/02/21 03:51:43;;;;;;;2.30;0.47;;;4.20;99.90;;;;;;5033735;28;20269;-62
2024/02/21 03:54:10;;;;;;;1.33;0.33;;;4.20;99.90;;;;;;5033028;28;20220;-62
2024/02/21 03:56:39;;;;;;;0.30;0.30;;;4.20;99.90;;;;;;5033375;28;20211;-62
2024/02/21 03:59:07;;;;;;;0.77;0.30;;;4.20;99.90;;;;;;5033625;28;20220;-61
2024/02/21 04:01:34;;;;;;;0.17;0.17;;;4.20;99.90;;;;;;5033593;28;20258;-62
2024/02/21 04:04:01;;;;;;;0.63;0.10;;;4.10;99.90;;;;;;5032715;28;20224;-62
2024/02/21 04:06:28;;;;;;;0.53;0.30;;;4.20;99.90;;;;;;5033064;28;20700;-62
2024/02/21 04:08:57;;;;;;;3.43;0.20;;;4.10;99.90;;;;;;5033758;28;20204;-62
2024/02/21 04:11:24;;;;;;;0.17;0.17;;;4.00;99.90;;;;;;5033390;28;20667;-62
2024/02/21 04:13:51;;;;;;;3.03;0.30;;;4.10;99.90;;;;;;5032377;28;20298;-62
2024/02/21 04:16:19;;;;;;;2.70;0.30;;;4.10;99.90;;;;;;5033374;28;20657;-61
2024/02/21 04:18:46;;;;;;;0.30;0.20;;;4.20;99.90;;;;;;5032888;28;20207;-62
2024/02/21 04:21:17;;;;;;;1.30;0.30;;;4.10;99.90;;;;;;5033311;28;20254;-62
2024/02/21 04:23:44;;;;;;;0.20;0.20;;;4.00;99.90;;;;;;5032237;28;20255;-62
2024/02/21 04:26:12;;;;;;;1.03;0.30;;;4.00;99.90;;;;;;5033245;28;20210;-62
2024/02/21 04:28:39;;;;;;;4.37;0.50;;;4.10;99.90;;;;;;5014506;28;20249;-62
2024/02/21 04:31:06;;;;;;;0.97;0.43;;;4.10;99.90;;;;;;5013173;28;20205;-62
2024/02/21 04:33:33;;;;;;;1.17;1.07;;;4.10;99.90;;;;;;5012093;28;20233;-62
2024/02/21 04:36:00;;;;;;;0.50;0.50;;;4.00;99.90;;;;;;5013175;28;20212;-62
2024/02/21 04:38:28;;;;;;;1.03;0.40;;;4.10;99.90;;;;;;5028381;28;20199;-62
2024/02/21 04:40:58;;;;;;;1.23;0.40;;;4.00;99.90;;;;;;5032567;28;20295;-62
2024/02/21 04:43:26;;;;;;;4.40;1.90;;;4.10;99.90;;;;;;5031487;28;20309;-62
2024/02/21 04:45:54;;;;;;;4.40;1.80;;;4.10;99.90;;;;;;5032955;28;20637;-62
2024/02/21 04:48:21;;;;;;;17.83;1.40;;;4.00;99.90;;;;;;5032146;28;20196;-62
2024/02/21 04:50:48;;;;;;;1.97;0.90;;;4.20;99.90;;;;;;5032482;28;20293;-62
2024/02/21 04:53:15;;;;;;;1.17;0.80;;;4.20;99.90;;;;;;5032443;28;20275;-62
2024/02/21 04:55:42;;;;;;;1.33;0.30;;;4.10;99.90;;;;;;5031354;28;20227;-62
2024/02/21 04:58:09;;;;;;;0.63;0.37;;;4.10;99.90;;;;;;5031541;28;20236;-62
2024/02/21 05:00:38;;;;;;;0.87;0.40;;;3.90;99.90;;;;;;5032098;28;20255;-62
2024/02/21 05:03:05;;;;;;;0.57;0.47;;;3.90;99.90;;;;;;5032429;28;20301;-63
2024/02/21 05:05:32;;;;;;;0.73;0.40;;;3.90;99.90;;;;;;5031574;28;20225;-62
2024/02/21 05:07:59;;;;;;;2.93;0.30;;;3.90;99.90;;;;;;5020439;28;20263;-62
2024/02/21 05:10:26;;;;;;;0.63;0.20;;;4.10;99.90;;;;;;5012382;28;20206;-62
2024/02/21 05:12:53;;;;;;;1.80;0.30;;;4.10;99.90;;;;;;5012613;28;20283;-62
2024/02/21 05:15:20;;;;;;;0.20;0.20;;;4.00;99.90;;;;;;5011846;28;20225;-62
2024/02/21 05:17:48;;;;;;;0.43;0.30;;;4.00;99.90;;;;;;5005507;28;20213;-62
2024/02/21 05:20:15;;;;;;;1.67;1.07;;;4.00;99.90;;;;;;5008061;28;20206;-62
2024/02/21 05:22:43;;;;;;;0.80;0.80;;;4.00;99.90;;;;;;5011391;28;20239;-62
2024/02/21 05:25:10;;;;;;;0.47;0.47;;;3.90;99.90;;;;;;5024453;28;20231;-62
2024/02/21 05:27:38;;;;;;;1.07;1.00;;;4.00;99.90;;;;;;5031669;28;20672;-62
2024/02/21 05:30:07;;;;;;;0.93;0.90;;;4.00;99.90;;;;;;5031946;28;20215;-62
2024/02/21 05:32:34;;;;;;;0.93;0.50;;;3.90;99.90;;;;;;5031147;28;20279;-61
2024/02/21 05:35:03;;;;;;;1.13;0.70;;;4.00;99.90;;;;;;5026916;28;20213;-62
2024/02/21 05:37:30;;;;;;;0.40;0.40;;;4.00;99.90;;;;;;5001028;28;20288;-62
2024/02/21 05:39:57;;;;;;;3.20;0.67;;;4.10;99.90;;;;;;5009969;28;20565;-62
2024/02/21 05:42:23;;;;;;;0.77;0.50;;;4.00;99.90;;;;;;5009992;28;20262;-62
2024/02/21 05:44:50;;;;;;;0.80;0.80;;;4.00;99.90;;;;;;5016065;23;20276;-61
2024/02/21 05:47:20;;;;;;;0.40;0.40;;;4.00;99.90;;;;;;5012703;28;20200;-61
2024/02/21 05:49:47;;;;;;;1.53;0.80;;;4.00;99.90;;;;;;5012960;28;20210;-61
2024/02/21 05:52:16;;;;;;;0.97;0.73;;;4.10;99.90;;;;;;4996858;28;20692;-60
2024/02/21 05:54:43;;;;;;;1.53;0.37;;;4.10;99.90;;;;;;4984019;28;20321;-61
2024/02/21 05:57:10;;;;;;;0.30;0.30;;;4.10;99.90;;;;;;4980720;28;20683;-61
2024/02/21 05:59:41;;;;;;;0.60;0.37;;;4.10;99.90;;;;;;4993137;28;20680;-61
2024/02/21 06:02:08;;;;;;;0.20;0.20;;;4.10;99.90;;;;;;4993055;28;20636;-60
2024/02/21 06:04:35;;;;;;;0.53;0.40;;;4.20;99.90;;;;;;4992087;28;20266;-60
2024/02/21 06:07:03;;;;;;;0.30;0.30;;;4.10;99.90;;;;;;4993242;28;20214;-61
2024/02/21 06:09:31;;;;;;;0.30;0.30;;;4.10;99.90;;;;;;4993326;28;20253;-61
2024/02/21 06:11:58;;;;;;;1.50;0.50;;;4.10;99.90;;;;;;4992627;28;20206;-61
2024/02/21 06:14:25;;;;;;;1.10;0.30;;;4.20;99.90;;;;;;4991742;28;20292;-60
2024/02/21 06:16:52;;;;;;;0.30;0.30;;;4.20;99.90;;;;;;4992724;28;20204;-60
2024/02/21 06:19:19;;;;;;;0.33;0.23;;;4.20;99.90;;;;;;4992520;28;20257;-61
2024/02/21 06:21:46;;;;;;;0.80;0.30;;;4.30;99.90;;;;;;4998580;28;20208;-61
2024/02/21 06:24:13;;;;;;;2.97;0.60;;;4.20;99.90;;;;;;4998619;28;20247;-61
2024/02/21 06:26:42;;;;;;;0.50;0.20;;;4.40;99.90;;;;;;4993374;28;20208;-61
2024/02/21 06:29:09;;;;;;;2.10;0.50;;;4.50;99.90;;;;;;4998051;28;20236;-60
2024/02/21 06:31:36;;;;;;;0.60;0.20;;;4.50;99.90;;;;;;4992675;28;20260;-61
2024/02/21 06:34:04;;;;;;;0.20;0.20;;;4.70;99.90;;;;;;4991652;28;20291;-61
2024/02/21 06:36:31;;;;;;;1.73;0.20;;;4.80;99.90;;;;;;4994098;28;20204;-61
2024/02/21 06:38:58;;;;;;;0.20;0.20;;;4.90;99.90;;;;;;5003347;28;20200;-61
2024/02/21 06:41:25;;;;;;;3.00;0.40;;;4.80;99.90;;;;;;5012710;28;20256;-61
2024/02/21 06:43:53;;;;;;;1.50;0.37;;;4.90;99.90;;;;;;5011916;28;20201;-61
2024/02/21 06:46:28;;;;;;;0.20;0.20;;;4.90;99.90;;;;;;5012322;28;20213;-61
2024/02/21 06:48:56;;;;;;;0.30;0.30;;;4.90;99.90;;;;;;5002820;28;20570;-61
2024/02/21 06:51:23;;;;;;;1.97;0.23;;;5.00;99.90;;;;;;4993289;28;20201;-61
2024/02/21 06:53:50;;;;;;;0.87;0.50;;;5.10;99.90;;;;;;4994257;28;20224;-61
2024/02/21 06:56:17;;;;;;;1.80;1.60;;;5.10;99.90;;;;;;4993412;28;20215;-61
2024/02/21 06:58:44;;;;;;;3.23;0.97;;;5.00;99.90;;;;;;4992234;28;20216;-61
2024/02/21 07:01:12;;;;;;;1.20;0.83;;;5.00;99.90;;;;;;4992504;28;20263;-61
2024/02/21 07:03:39;;;;;;;1.50;0.70;;;5.10;99.90;;;;;;4990588;28;20672;-61
2024/02/21 07:06:06;;;;;;;0.40;0.40;;;5.10;99.90;;;;;;4992261;28;20262;-61
2024/02/21 07:08:33;;;;;;;0.93;0.93;;;5.20;99.90;;;;;;4996756;28;20754;-61
2024/02/21 07:11:00;;;;;;;0.60;0.60;;;5.30;99.90;;;;;;5012015;28;20272;-61
2024/02/21 07:13:27;;;;;;;0.80;0.70;;;5.20;99.90;;;;;;5010903;28;20223;-61
2024/02/21 07:15:54;;;;;;;0.97;0.60;;;5.20;99.90;;;;;;5011975;28;20304;-59
2024/02/21 07:18:22;;;;;;;1.37;0.80;;;5.10;99.90;;;;;;5008336;28;20264;-60
2024/02/21 07:20:49;;;;;;;1.33;1.07;;;5.10;99.90;;;;;;4992309;28;20209;-60
2024/02/21 07:23:16;;;;;;;2.00;0.90;;;5.10;99.90;;;;;;4988418;28;20436;-64
2024/02/21 07:25:43;;;;;;;2.67;0.80;;;5.10;99.90;;;;;;4990822;28;20643;-67
2024/02/21 07:28:10;;;;;;;1.33;1.23;;;5.20;99.90;;;;;;4990231;28;20211;-66
2024/02/21 07:30:37;;;;;;;1.40;0.97;;;5.10;99.90;;;;;;4995163;28;20243;-68
2024/02/21 07:33:04;;;;;;;2.07;0.87;;;5.20;99.90;;;;;;5011732;28;20634;-70
2024/02/21 07:35:32;;;;;;;0.70;0.70;;;5.20;99.90;;;;;;5009262;28;20295;-60
2024/02/21 07:37:59;;;;;;;2.17;1.13;;;5.30;99.90;;;;;;5010161;28;20218;-60
2024/02/21 07:40:26;;;;;;;1.30;0.73;;;5.40;99.90;;;;;;4991254;28;20213;-60
2024/02/21 07:42:54;;;;;;;1.60;0.50;;;5.40;99.90;;;;;;4997322;28;20349;-61
2024/02/21 07:45:23;;;;;;;1.17;0.40;;;5.50;99.90;;;;;;4991690;28;20229;-60
2024/02/21 07:47:50;;;;;;;0.30;0.30;;;5.80;99.90;;;;;;4991399;28;20205;-60
2024/02/21 07:50:18;;;;;;;0.57;0.50;;;5.90;99.90;;;;;;4991209;28;20203;-60
2024/02/21 07:52:46;;;;;;;1.37;0.40;;;6.40;99.90;;;;;;4991717;28;20302;-60
2024/02/21 07:55:13;;;;;;;2.00;0.53;;;7.30;99.90;;;;;;4990995;28;20279;-61
2024/02/21 07:57:40;;;;;;;6.53;0.50;;;8.10;99.90;;;;;;4992891;28;20569;-60
2024/02/21 08:00:09;;;;;;;0.57;0.40;;;8.70;99.90;;;;;;5011649;28;20209;-60
2024/02/21 08:02:37;;;;;;;0.70;0.50;;;9.30;99.90;;;;;;5013484;28;20291;-61
2024/02/21 08:05:04;;;;;;;13.10;0.60;;;9.70;99.90;;;;;;5011004;28;20224;-60
2024/02/21 08:07:33;;;;;;;0.40;0.40;;;10.00;99.90;;;;;;5011325;28;20681;-59
2024/02/21 08:10:01;;;;;;;0.43;0.43;;;10.30;99.90;;;;;;5011217;28;20206;-60
2024/02/21 08:12:28;;;;;;;1.37;0.50;;;10.00;99.90;;;;;;5011942;28;20681;-60
2024/02/21 08:14:55;;;;;;;1.63;0.60;;;9.70;99.90;;;;;;5013003;28;20229;-62
2024/02/21 08:17:22;;;;;;;0.50;0.50;;;9.40;99.90;;;;;;5015011;28;20209;-62
2024/02/21 08:19:49;;;;;;;2.33;1.43;;;9.20;99.90;;;;;;5000104;28;20225;-60
2024/02/21 08:22:16;;;;;;;2.00;1.00;;;8.90;99.90;;;;;;4995150;28;20239;-59
2024/02/21 08:24:43;;;;;;;1.90;0.90;;;8.60;99.90;;;;;;4994505;28;20253;-59
2024/02/21 08:27:12;;;;;;;3.37;0.37;;;8.60;99.90;;;;;;4995183;28;20210;-59
2024/02/21 08:29:39;;;;;;;1.17;0.73;;;8.70;99.90;;;;;;4994896;28;20199;-59
2024/02/21 08:32:06;;;;;;;0.90;0.50;;;8.90;99.90;;;;;;4994952;28;20264;-59
2024/02/21 08:34:33;;;;;;;0.60;0.40;;;9.30;99.90;;;;;;4993892;28;20280;-59
2024/02/21 08:37:00;;;;;;;3.20;0.60;;;9.50;99.90;;;;;;4994993;28;20262;-60
2024/02/21 08:39:28;;;;;;;0.10;0.10;;;9.70;99.90;;;;;;4994585;28;20198;-59
2024/02/21 08:41:55;;;;;;;0.93;0.83;;;9.60;99.90;;;;;;4994853;28;20244;-59
2024/02/21 08:44:25;;;;;;;3.00;0.53;;;9.70;99.90;;;;;;4993836;28;20232;-59
2024/02/21 08:46:52;;;;;;;0.40;0.40;;;9.50;99.90;;;;;;4995855;28;20217;-59
2024/02/21 08:49:20;;;;;;;0.50;0.40;;;9.70;99.90;;;;;;4994447;28;20202;-59
2024/02/21 08:51:47;;;;;;;0.87;0.40;;;9.80;99.90;;;;;;4995178;28;20254;-59
2024/02/21 08:54:14;;;;;;;0.33;0.20;;;9.80;99.90;;;;;;4994518;28;20259;-60
2024/02/21 08:56:41;;;;;;;1.60;0.20;;;9.70;99.90;;;;;;4994881;28;20268;-60
2024/02/21 08:59:08;;;;;;;0.37;0.20;;;10.00;99.90;;;;;;4994545;28;20759;-60
2024/02/21 09:01:37;;;;;;;3.10;0.10;;;10.20;99.90;;;;;;4994645;28;20288;-59
2024/02/21 09:04:05;;;;;;;0.40;0.20;;;10.30;99.90;;;;;;4993611;28;20225;-60
2024/02/21 09:06:33;;;;;;;0.20;0.20;;;10.30;99.90;;;;;;4994709;28;20201;-60
2024/02/21 09:09:00;;;;;;;0.53;0.10;;;10.60;99.90;;;;;;5003725;28;20296;-59
2024/02/21 09:11:27;;;;;;;0.20;0.13;;;11.00;99.90;;;;;;5013852;28;20209;-60
2024/02/21 09:13:54;;;;;;;0.30;0.30;;;11.50;99.90;;;;;;5012408;28;20530;-61
2024/02/21 09:16:21;;;;;;;0.27;0.10;;;12.20;99.90;;;;;;5013553;28;20209;-62
2024/02/21 09:19:02;;;;;;;3.33;0.10;;;12.70;99.90;;;;;;4989712;28;20213;-62
2024/02/21 09:21:33;;;;;;;1.60;0.20;;;12.90;99.90;;;;;;4975750;28;20349;-62
2024/02/21 09:24:02;;;;;;;0.60;0.20;;;12.90;99.90;;;;;;4985073;28;20321;-62
2024/02/21 09:26:30;;;;;;;0.40;0.10;;;13.10;99.90;;;;;;4992561;28;20302;-62
2024/02/21 09:28:57;;;;;;;0.13;0.13;;;13.00;99.90;;;;;;4982887;28;20199;-61
2024/02/21 09:31:24;;;;;;;0.10;0.10;;;12.90;99.90;;;;;;4974464;28;20680;-63
2024/02/21 09:33:52;;;;;;;0.10;0.10;;;12.90;99.90;;;;;;4973262;28;20304;-62
2024/02/21 09:36:21;;;;;;;1.70;0.17;;;12.60;99.90;;;;;;4993759;28;20210;-63
2024/02/21 09:38:47;;;;;;;1.30;0.20;;;12.20;99.90;;;;;;4993445;28;20691;-62
2024/02/21 09:41:17;;;;;;;0.20;0.20;;;12.30;99.90;;;;;;4993536;28;20257;-62
2024/02/21 09:43:46;;;;;;;0.63;0.20;;;12.10;99.90;;;;;;4992937;28;20265;-61
2024/02/21 09:46:18;;;;;;;0.50;0.10;;;12.10;99.90;;;;;;4993450;28;20251;-61
2024/02/21 09:48:53;;;;;;;0.60;0.60;;;;;;;;;;4993130;28;20626;-61
2024/02/21 09:51:22;;;;;;;0.13;0.13;;;;;;;;;;4993215;28;20205;-61
2024/02/21 09:53:50;;;;;;;0.20;0.20;;;;;;;;;;4984454;28;20212;-61
2024/02/21 09:56:17;;;;;;;0.20;0.20;;;;;;;;;;4989782;28;20260;-61
2024/02/21 09:58:45;;;;;;;0.97;0.30;;;;;;;;;;4992714;28;20598;-61
2024/02/21 10:01:12;;;;;;;0.60;0.60;;;;;;;;;;4994314;28;20203;-62
2024/02/21 10:03:39;;;;;;;3.87;0.80;;;;;;;;;;4992164;28;20268;-62
2024/02/21 10:06:07;;;;;;;1.50;0.30;;;;;;;;;;4993185;28;20200;-61
2024/02/21 10:08:35;;;;;;;2.00;0.30;;;;;;;;;;4987616;28;20262;-61
2024/02/21 10:11:03;;;;;;;0.37;0.37;;;;;;;;;;4996611;28;20208;-61
2024/02/21 10:13:31;;;;;;;0.30;0.30;;;;;;;;;;4974550;28;20286;-61
2024/02/21 10:16:05;;;;;;;1.33;0.30;;;;;;;;;;4978735;28;20230;-61
2024/02/21 10:18:35;;;;;;;1.13;0.27;;;;;;;;;;4992286;28;20250;-62
2024/02/21 10:21:03;;;;;;;1.07;0.30;;;;;;;;;;4983738;28;20673;-61
2024/02/21 10:23:30;;;;;;;0.30;0.20;;;;;;;;;;4976639;28;20216;-61
2024/02/21 10:26:07;;;;;;;0.73;0.40;;;;;;;;;;4993433;28;20219;-62
2024/02/21 10:28:35;;;;;;;1.63;1.30;;;;;;;;;;5001093;28;20195;-62
2024/02/21 10:31:02;;;;;;;1.53;1.30;;;;;;;;;;5012403;28;20217;-60
2024/02/21 10:33:32;;;;;;;2.30;1.23;;;;;;;;;;4993156;28;20262;-60
2024/02/21 10:36:07;;;;;;;1.40;1.30;;;;;;;;;;4973930;28;20231;-61
2024/02/21 10:38:35;;;;;;;1.53;1.30;;;;;;;;;;4979382;28;20682;-61
2024/02/21 10:41:03;;;;;;;3.07;1.40;;;;;;;;;;4984993;28;20352;-61
2024/02/21 10:43:34;;;;;;;1.03;1.03;;;;;;;;;;4987415;28;20672;-60
2024/02/21 10:46:04;;;;;;;2.07;1.20;;;;;;;;;;4989779;28;20297;-60
2024/02/21 10:48:35;;;;;;;1.57;1.30;;;;;;;;;;4978781;28;20207;-60
2024/02/21 10:51:05;;;;;;;4.00;0.90;;;;;;;;;;4982017;28;20258;-60
2024/02/21 10:53:37;;;;;;;2.33;0.97;;;;;;;;;;4986844;28;20206;-60
2024/02/21 10:56:08;;;;;;;1.47;1.47;;;;;;;;;;4974499;28;20234;-61
2024/02/21 10:58:37;;;;;;;0.97;0.87;;;;;;;;;;4977318;28;21754;-60
2024/02/21 11:01:05;;;;;;;1.57;1.17;;;;;;;;;;4991315;28;20196;-61
2024/02/21 11:03:33;;;;;;;1.30;1.03;;;;;;;;;;4980211;28;20203;-60
2024/02/21 11:06:00;;;;;;;1.97;1.20;;;;;;;;;;4992215;28;20290;-60
2024/02/21 11:08:28;;;;;;;2.63;1.20;;;;;;;;;;4977404;28;20259;-61
2024/02/21 11:10:59;;;;;;;2.73;1.10;;;;;;;;;;4992202;28;20202;-61
2024/02/21 11:13:32;;;;;;;2.83;1.10;;;;;;;;;;4991388;28;20223;-61
2024/02/21 11:16:09;;;;;;;1.17;0.90;;;;;;;;;;4987583;28;20689;-61
2024/02/21 11:18:36;;;;;;;2.83;1.07;;;;;;;;;;4981114;28;20233;-61
2024/02/21 11:21:04;;;;;;;3.03;0.83;;;;;;;;;;4992114;28;20258;-61
2024/02/21 11:23:31;;;;;;;0.93;0.93;;;;;;;;;;4991019;28;20230;-61
2024/02/21 11:26:05;;;;;;;2.63;1.20;;;;;;;;;;4992239;28;20226;-61
2024/02/21 11:28:33;;;;;;;2.97;1.03;;;;;;;;;;4991890;28;20218;-61
2024/02/21 11:31:10;;;;;;;0.90;0.90;;;13.20;99.90;;;;;;4992041;28;20253;-61
2024/02/21 11:33:37;;;;;;;2.87;0.90;;;;;;;;;;4988964;28;20733;-61
2024/02/21 11:36:04;;;;;;;2.20;1.37;;;;;;;;;;4992533;28;20226;-61
2024/02/21 11:38:32;;;;;;;2.23;1.20;;;;;;;;;;4979601;28;20238;-61
2024/02/21 11:40:59;;;;;;;1.03;0.90;;;;;;;;;;4992325;28;20273;-61
2024/02/21 11:43:26;;;;;;;1.70;1.07;;;;;;;;;;4991273;28;20207;-61
2024/02/21 11:46:00;;;;;;;3.33;1.00;;;12.50;99.90;;;;;;4991904;28;20237;-61
2024/02/21 11:48:29;;;;;;;0.97;0.97;;;;;;;;;;4991908;28;20227;-60
2024/02/21 11:50:57;;;;;;;2.00;1.07;;;;;;;;;;4993916;28;20208;-60
2024/02/21 11:53:27;;;;;;;1.33;0.90;;;;;;;;;;4985197;28;20240;-59
2024/02/21 11:55:55;;;;;;;1.37;0.73;;;;;;;;;;4995342;28;20322;-61
2024/02/21 11:58:22;;;;;;;1.90;0.83;;;12.30;99.90;;;;;;4986358;28;20738;-60
2024/02/21 12:00:49;;;;;;;1.03;0.90;;;12.30;99.90;;;;;;4979562;28;20294;-61
2024/02/21 12:03:16;;;;;;;2.50;1.03;;;12.40;99.90;;;;;;4995614;28;20200;-60
2024/02/21 12:05:46;;;;;;;2.07;1.07;;;12.50;99.90;;;;;;4994326;28;20290;-61
2024/02/21 12:08:13;;;;;;;1.50;0.80;;;12.40;99.90;;;;;;4995362;28;20212;-61
2024/02/21 12:10:40;;;;;;;0.87;0.87;;;12.40;99.90;;;;;;4995256;28;20202;-61
2024/02/21 12:13:26;;;;;;;1.73;1.37;;;12.40;99.90;;;;;;4995359;28;20206;-62
2024/02/21 12:15:52;;;;;;;0.80;0.77;;;12.10;99.90;;;;;;4984456;28;20651;-61
2024/02/21 12:18:20;;;;;;;0.60;0.60;;;12.00;99.90;;;;;;4979361;28;20777;-61
2024/02/21 12:20:50;;;;;;;1.80;0.87;;;12.10;99.90;;;;;;4992605;28;20203;-61
2024/02/21 12:23:19;;;;;;;1.67;0.87;;;12.20;99.90;;;;;;4990486;28;20628;-61
2024/02/21 12:25:46;;;;;;;2.57;1.00;;;12.00;99.90;;;;;;4991919;28;20262;-61
2024/02/21 12:28:13;;;;;;;2.00;1.00;;;11.90;99.90;;;;;;4995214;28;20210;-61
2024/02/21 12:30:40;;;;;;;1.27;1.17;;;11.80;99.90;;;;;;4994972;28;20203;-62
2024/02/21 12:33:07;;;;;;;1.07;0.90;;;12.00;99.90;;;;;;4994077;28;20840;-61
2024/02/21 12:35:34;;;;;;;2.73;1.33;;;11.80;99.90;;;;;;4993769;28;20269;-61
2024/02/21 12:38:02;;;;;;;1.30;1.20;;;11.90;99.90;;;;;;4994951;28;20210;-61
2024/02/21 12:40:32;;;;;;;0.80;0.80;;;12.10;99.90;;;;;;4992837;28;20233;-61
2024/02/21 12:43:00;;;;;;;2.00;1.10;;;11.90;99.90;;;;;;4994303;28;20661;-61
2024/02/21 12:45:27;;;;;;;1.30;0.93;;;12.00;99.90;;;;;;4993363;28;20265;-61
2024/02/21 12:47:54;;;;;;;1.70;1.13;;;12.10;99.90;;;;;;4994439;28;20626;-61
2024/02/21 12:50:22;;;;;;;1.27;1.27;;;11.90;99.90;;;;;;4994253;28;20208;-62
2024/02/21 12:52:50;;;;;;;3.80;1.13;;;11.80;99.90;;;;;;4994220;28;20210;-61
2024/02/21 12:55:18;;;;;;;3.23;1.17;;;12.00;99.90;;;;;;4993270;28;20274;-62
2024/02/21 12:57:45;;;;;;;1.03;0.73;;;11.90;99.90;;;;;;4994405;28;20198;-61
2024/02/21 13:00:14;;;;;;;1.30;1.10;;;11.70;99.90;;;;;;4994044;28;20206;-60
2024/02/21 13:02:41;;;;;;;2.83;1.30;;;11.70;99.90;;;;;;4993993;28;20293;-61
2024/02/21 13:05:08;;;;;;;1.10;1.10;;;11.80;99.90;;;;;;4993109;28;20227;-62
2024/02/21 13:07:38;;;;;;;4.33;1.90;;;11.70;99.90;;;;;;4994105;28;20259;-61
2024/02/21 13:10:05;;;;;;;1.60;1.03;;;11.70;99.90;;;;;;4993593;28;20207;-61
2024/02/21 13:12:36;;;;;;;2.00;1.10;;;11.60;99.90;;;;;;4993899;28;20214;-62
2024/02/21 13:15:03;;;;;;;2.73;1.30;;;11.70;99.90;;;;;;4992601;28;20241;-62